Monday, September 01, 2014
21:13 UTC
  |  Log In   |  Register Free
Airport Search:

Modesto City-Co-Harry Sham Fld Airport
(KMOD)

FAA data valid effective July 24, 2014 until September 18, 2014 (unless otherwise noted).

 
 
 
 
 
 
 
 
 
 
 
 
 
 

Current Aviation Weather for Modesto City-Co-Harry Sham Fld Airport (KMOD)

The most recent METAR observation for KMOD was updated at: 1953 UTC
METAR Summary (Translated METAR)
KMOD
011953Z 28008G16KT 10SM CLR 32/11 A2978 RMK AO2 SLP084 T03220111
KSCK
(21 nm NW from KMOD)
011955Z 28006KT 10SM CLR 33/12 A2979 RMK AO2 SLP086 T03280117
TAF Summary (Translated TAF)
KSCK
(21 nm NW from KMOD)
011740Z 0118/0218 32005KT P6SM SKC FM012200 31010KT P6SM SKC FM020300 34004KT P6SM SKC
KMCE
(29.3 nm SE from KMOD)
011722Z 0118/0218 34007KT P6SM SKC FM020500 VRB03KT P6SM SKC
  Airport Weather Conditions for KMOD

 Current Weather at MOD
86° F
Fair
West winds at 9.2 mph
MOD NOAA Radar

Pressure: 29.81 in
Humidity: 32%
Wind: West at 9.2 MPH (8 KT)
Dew Point: 53.1°F
Visibility: 10.00 mi


Airport Weather Forecast for KMOD

Translated METAR and TAF for KMOD
Translated METAR for KMOD (2107 UTC 01 September 2014)
found at http://aviationweather.gov/adds/metars/
 
METAR text: KMOD 012053Z 33007KT 290V350 10SM CLR 34/11 A2976 RMK AO2 SLP078 T03390106 58019
Conditions at: KMOD (MODESTO , CA, US) observed 2053 UTC 01 September 2014
Temperature: 33.9°C (93°F)
Dewpoint: 10.6°C (51°F) [RH = 24%]
Pressure (altimeter): 29.76 inches Hg (1007.9 mb)
[Sea-level pressure: 1007.8 mb]
Winds: from the NNW (330 degrees) at 8 MPH (7 knots; 3.6 m/s)
Visibility: 10 or more miles (16+ km)
Ceiling: at least 12,000 feet AGL
Clouds: sky clear below 12,000 feet AGL
Weather: no significant weather observed at this time
Translated TAF for KMOD

There is no translated TAF available for this airport

Find All Airport Services Find A Hotel Find A Rental Car Find A Golf Course Find A Restaurant $100 Hamburger



FBO's on the Field
FBO Company Facility Photos Services Transportation Aviation Fuel Prices: Prices include tax
Catering Weather Repair Courtesy Rental Type 100LL JetA JetA+ MOGAS 8087
 
Sky Trek Aviation

This FBO has not yet been rated
FS:Avfuel
Last Updated: Aug-27
Login to update fuel prices
SS:
Contact Sky Trek AviationMore FBO Information
 
Add another FBO Facility Photos Catering Weather Repair Courtesy Rental Type 100LL JetA JetA+ MOGAS 8087
Services Transportation Aviation Fuel Prices: Prices include tax


GlobalAir.com Airport Resource Center model-print
model-print
model-print
model-print